Impacts TAF Board INFO
FOR SITUATIONAL AWARENESS. NOT TO BE USED FOR FLIGHT PLANNING PURPOSES.
IDs:

KIAD - Washington/Dulles In, VA, US

Issued at 0540 UTC 22 Feb 2018
Updated at 0852 UTC 22 Feb 2018
Potential Impact None Slight Moderate High
Time<<22/21Z 22/22Z 22/23Z 23/00Z 23/01Z 23/02Z 23/03Z 23/04Z 23/05Z 23/06Z 23/07Z 23/08Z 23/09Z>>
Type PRVL PRVL PRVL PRVL PRVL PRVL PRVL PRVL PRVL PRVL PRVL PRVL PRVL
VIS 5 5 5 5 5 5 5 5 2 2 2 2 2
CIG 8 8 8 8 8 8 8 8 4 4 4 4 4
Cover OVC OVC OVC OVC OVC OVC OVC OVC OVC OVC OVC OVC OVC
FltCat IFR IFR IFR IFR IFR IFR IFR IFR LIFR LIFR LIFR LIFR LIFR
WX -RA -DZ -RA -DZ -RA -DZ -RA -DZ -RA -DZ -RA -DZ -RA -DZ -RA -DZ -RA -DZ BR -RA -DZ BR -RA -DZ BR -RA -DZ BR -RA -DZ BR
WDir 20 20 20 20 20 20 20 20 30 30 30 30 30
WSpd 7 7 7 7 7 7 7 7 5 5 5 5 5
WGst -- -- -- -- -- -- -- -- -- -- -- -- --

Raw TAF
KIAD 220540Z 2206/2312 35008KT P6SM SCT025 OVC050
  FM220800 36008G16KT P6SM BKN025 OVC050
  FM221300 02007KT 5SM -RADZ BKN015 OVC025
  FM221600 02007KT 5SM -RADZ BKN008 OVC015
  FM230500 03005KT 2SM -RADZ BR BKN004 OVC008


METAR Board
Radar Display
Forecast Discussion

FOR SITUATIONAL AWARENESS. NOT TO BE USED FOR FLIGHT PLANNING PURPOSES.